sensor_id;sensor_type;location;lat;lon;timestamp;temperature;humidity
67752;DHT22;54551;51.068;5.826;2023-01-31T00:01:13;4.30;99.90
67752;DHT22;54551;51.068;5.826;2023-01-31T00:03:40;4.30;99.90
67752;DHT22;54551;51.068;5.826;2023-01-31T00:06:21;4.20;99.90
67752;DHT22;54551;51.068;5.826;2023-01-31T00:08:48;4.20;99.90
67752;DHT22;54551;51.068;5.826;2023-01-31T00:11:16;4.20;99.90
67752;DHT22;54551;51.068;5.826;2023-01-31T00:13:44;4.20;99.90
67752;DHT22;54551;51.068;5.826;2023-01-31T00:16:11;4.10;99.90
67752;DHT22;54551;51.068;5.826;2023-01-31T00:18:38;4.10;99.90
67752;DHT22;54551;51.068;5.826;2023-01-31T00:21:18;4.10;99.90
67752;DHT22;54551;51.068;5.826;2023-01-31T00:23:45;4.10;99.90
67752;DHT22;54551;51.068;5.826;2023-01-31T00:26:17;4.00;99.90
67752;DHT22;54551;51.068;5.826;2023-01-31T00:28:45;4.00;99.90
67752;DHT22;54551;51.068;5.826;2023-01-31T00:31:13;4.00;99.90
67752;DHT22;54551;51.068;5.826;2023-01-31T00:33:41;4.00;99.90
67752;DHT22;54551;51.068;5.826;2023-01-31T00:36:27;4.00;99.90
67752;DHT22;54551;51.068;5.826;2023-01-31T00:38:56;4.10;99.90
67752;DHT22;54551;51.068;5.826;2023-01-31T00:41:24;4.10;99.90
67752;DHT22;54551;51.068;5.826;2023-01-31T00:43:51;4.10;99.90
67752;DHT22;54551;51.068;5.826;2023-01-31T00:46:17;4.20;99.90
67752;DHT22;54551;51.068;5.826;2023-01-31T00:48:45;4.30;99.90
67752;DHT22;54551;51.068;5.826;2023-01-31T00:51:11;4.30;99.90
67752;DHT22;54551;51.068;5.826;2023-01-31T00:53:37;4.40;99.90
67752;DHT22;54551;51.068;5.826;2023-01-31T00:56:12;4.40;99.90
67752;DHT22;54551;51.068;5.826;2023-01-31T00:58:40;4.40;99.90
67752;DHT22;54551;51.068;5.826;2023-01-31T01:01:14;4.40;99.90
67752;DHT22;54551;51.068;5.826;2023-01-31T01:03:43;4.40;99.90
67752;DHT22;54551;51.068;5.826;2023-01-31T01:06:09;4.40;99.90
67752;DHT22;54551;51.068;5.826;2023-01-31T01:08:37;4.40;99.90
67752;DHT22;54551;51.068;5.826;2023-01-31T01:11:09;4.40;99.90
67752;DHT22;54551;51.068;5.826;2023-01-31T01:13:35;4.40;99.90
67752;DHT22;54551;51.068;5.826;2023-01-31T01:16:06;4.40;99.90
67752;DHT22;54551;51.068;5.826;2023-01-31T01:18:34;4.40;99.90
67752;DHT22;54551;51.068;5.826;2023-01-31T01:21:11;4.40;99.90
67752;DHT22;54551;51.068;5.826;2023-01-31T01:23:38;4.30;99.90
67752;DHT22;54551;51.068;5.826;2023-01-31T01:26:07;4.30;99.90
67752;DHT22;54551;51.068;5.826;2023-01-31T01:28:37;4.20;99.90
67752;DHT22;54551;51.068;5.826;2023-01-31T01:31:06;4.20;99.90
67752;DHT22;54551;51.068;5.826;2023-01-31T01:33:34;4.20;99.90
67752;DHT22;54551;51.068;5.826;2023-01-31T01:36:05;4.20;99.90
67752;DHT22;54551;51.068;5.826;2023-01-31T01:38:35;4.20;99.90
67752;DHT22;54551;51.068;5.826;2023-01-31T01:41:04;4.20;99.90
67752;DHT22;54551;51.068;5.826;2023-01-31T01:43:50;4.10;99.90
67752;DHT22;54551;51.068;5.826;2023-01-31T01:46:35;4.10;99.90
67752;DHT22;54551;51.068;5.826;2023-01-31T01:49:11;4.10;99.90
67752;DHT22;54551;51.068;5.826;2023-01-31T01:51:39;4.00;99.90
67752;DHT22;54551;51.068;5.826;2023-01-31T01:54:15;3.90;99.90
67752;DHT22;54551;51.068;5.826;2023-01-31T01:56:46;3.90;99.90
67752;DHT22;54551;51.068;5.826;2023-01-31T01:59:23;3.80;99.90
67752;DHT22;54551;51.068;5.826;2023-01-31T02:01:50;3.80;99.90
67752;DHT22;54551;51.068;5.826;2023-01-31T02:04:21;3.80;99.90
67752;DHT22;54551;51.068;5.826;2023-01-31T02:06:48;3.80;99.90
67752;DHT22;54551;51.068;5.826;2023-01-31T02:09:35;3.70;99.90
67752;DHT22;54551;51.068;5.826;2023-01-31T02:12:05;3.70;99.90
67752;DHT22;54551;51.068;5.826;2023-01-31T02:14:31;3.70;99.90
67752;DHT22;54551;51.068;5.826;2023-01-31T02:16:57;3.70;99.90
67752;DHT22;54551;51.068;5.826;2023-01-31T02:41:21;3.70;99.90
67752;DHT22;54551;51.068;5.826;2023-01-31T02:43:55;3.70;99.90
67752;DHT22;54551;51.068;5.826;2023-01-31T02:49:21;3.70;99.90
67752;DHT22;54551;51.068;5.826;2023-01-31T02:52:13;3.80;99.90
67752;DHT22;54551;51.068;5.826;2023-01-31T02:57:38;3.90;99.90
67752;DHT22;54551;51.068;5.826;2023-01-31T03:00:06;3.90;99.90
67752;DHT22;54551;51.068;5.826;2023-01-31T03:02:33;3.90;99.90
67752;DHT22;54551;51.068;5.826;2023-01-31T03:05:01;3.90;99.90
67752;DHT22;54551;51.068;5.826;2023-01-31T03:07:29;3.80;99.90
67752;DHT22;54551;51.068;5.826;2023-01-31T03:13:00;3.80;99.90
67752;DHT22;54551;51.068;5.826;2023-01-31T03:18:40;3.70;99.90
67752;DHT22;54551;51.068;5.826;2023-01-31T03:21:16;3.70;99.90
67752;DHT22;54551;51.068;5.826;2023-01-31T03:23:47;3.70;99.90
67752;DHT22;54551;51.068;5.826;2023-01-31T03:26:14;3.70;99.90
67752;DHT22;54551;51.068;5.826;2023-01-31T03:28:41;3.80;99.90
67752;DHT22;54551;51.068;5.826;2023-01-31T03:31:27;3.70;99.90
67752;DHT22;54551;51.068;5.826;2023-01-31T03:33:58;3.80;99.90
67752;DHT22;54551;51.068;5.826;2023-01-31T03:39:58;3.80;99.90
67752;DHT22;54551;51.068;5.826;2023-01-31T03:45:20;3.80;99.90
67752;DHT22;54551;51.068;5.826;2023-01-31T03:47:49;3.90;99.90
67752;DHT22;54551;51.068;5.826;2023-01-31T03:50:38;3.90;99.90
67752;DHT22;54551;51.068;5.826;2023-01-31T03:53:09;3.90;99.90
67752;DHT22;54551;51.068;5.826;2023-01-31T03:55:41;3.90;99.90
67752;DHT22;54551;51.068;5.826;2023-01-31T03:58:10;3.90;99.90
67752;DHT22;54551;51.068;5.826;2023-01-31T04:00:41;3.80;99.90
67752;DHT22;54551;51.068;5.826;2023-01-31T04:03:27;3.80;99.90
67752;DHT22;54551;51.068;5.826;2023-01-31T04:05:55;3.80;99.90
67752;DHT22;54551;51.068;5.826;2023-01-31T04:08:22;3.80;99.90
67752;DHT22;54551;51.068;5.826;2023-01-31T04:10:58;3.80;99.90
67752;DHT22;54551;51.068;5.826;2023-01-31T04:13:24;3.70;99.90
67752;DHT22;54551;51.068;5.826;2023-01-31T04:15:50;3.70;99.90
67752;DHT22;54551;51.068;5.826;2023-01-31T04:18:16;3.80;99.90
67752;DHT22;54551;51.068;5.826;2023-01-31T04:20:42;3.80;99.90
67752;DHT22;54551;51.068;5.826;2023-01-31T04:23:08;3.70;99.90
67752;DHT22;54551;51.068;5.826;2023-01-31T04:25:33;3.80;99.90
67752;DHT22;54551;51.068;5.826;2023-01-31T04:27:59;3.80;99.90
67752;DHT22;54551;51.068;5.826;2023-01-31T04:30:25;3.80;99.90
67752;DHT22;54551;51.068;5.826;2023-01-31T04:32:51;3.80;99.90
67752;DHT22;54551;51.068;5.826;2023-01-31T04:35:17;3.90;99.90
67752;DHT22;54551;51.068;5.826;2023-01-31T04:37:43;3.90;99.90
67752;DHT22;54551;51.068;5.826;2023-01-31T04:40:09;3.90;99.90
67752;DHT22;54551;51.068;5.826;2023-01-31T04:42:38;3.80;99.90
67752;DHT22;54551;51.068;5.826;2023-01-31T04:45:04;3.80;99.90
67752;DHT22;54551;51.068;5.826;2023-01-31T04:47:30;3.90;99.90
67752;DHT22;54551;51.068;5.826;2023-01-31T04:49:56;3.90;99.90
67752;DHT22;54551;51.068;5.826;2023-01-31T04:52:22;3.90;99.90
67752;DHT22;54551;51.068;5.826;2023-01-31T04:54:49;3.90;99.90
67752;DHT22;54551;51.068;5.826;2023-01-31T04:57:15;3.90;99.90
67752;DHT22;54551;51.068;5.826;2023-01-31T04:59:41;3.90;99.90
67752;DHT22;54551;51.068;5.826;2023-01-31T05:02:07;3.90;99.90
67752;DHT22;54551;51.068;5.826;2023-01-31T05:04:33;4.00;99.90
67752;DHT22;54551;51.068;5.826;2023-01-31T05:06:58;4.00;99.90
67752;DHT22;54551;51.068;5.826;2023-01-31T05:09:24;4.00;99.90
67752;DHT22;54551;51.068;5.826;2023-01-31T05:11:51;4.00;99.90
67752;DHT22;54551;51.068;5.826;2023-01-31T05:14:17;4.00;99.90
67752;DHT22;54551;51.068;5.826;2023-01-31T05:16:45;4.00;99.90
67752;DHT22;54551;51.068;5.826;2023-01-31T05:19:15;4.00;99.90
67752;DHT22;54551;51.068;5.826;2023-01-31T05:21:41;4.00;99.90
67752;DHT22;54551;51.068;5.826;2023-01-31T05:24:27;4.00;99.90
67752;DHT22;54551;51.068;5.826;2023-01-31T05:26:54;4.00;99.90
67752;DHT22;54551;51.068;5.826;2023-01-31T05:29:24;4.00;99.90
67752;DHT22;54551;51.068;5.826;2023-01-31T05:31:53;4.00;99.90
67752;DHT22;54551;51.068;5.826;2023-01-31T05:34:19;4.00;99.90
67752;DHT22;54551;51.068;5.826;2023-01-31T05:36:45;4.00;99.90
67752;DHT22;54551;51.068;5.826;2023-01-31T05:39:11;4.00;99.90
67752;DHT22;54551;51.068;5.826;2023-01-31T05:41:37;4.00;99.90
67752;DHT22;54551;51.068;5.826;2023-01-31T05:44:03;4.00;99.90
67752;DHT22;54551;51.068;5.826;2023-01-31T05:46:29;4.00;99.90
67752;DHT22;54551;51.068;5.826;2023-01-31T05:48:55;4.00;99.90
67752;DHT22;54551;51.068;5.826;2023-01-31T05:51:21;4.00;99.90
67752;DHT22;54551;51.068;5.826;2023-01-31T05:53:47;4.00;99.90
67752;DHT22;54551;51.068;5.826;2023-01-31T05:56:13;4.00;99.90
67752;DHT22;54551;51.068;5.826;2023-01-31T05:58:39;4.00;99.90
67752;DHT22;54551;51.068;5.826;2023-01-31T06:01:05;4.00;99.90
67752;DHT22;54551;51.068;5.826;2023-01-31T06:03:31;4.00;99.90
67752;DHT22;54551;51.068;5.826;2023-01-31T06:05:57;4.00;99.90
67752;DHT22;54551;51.068;5.826;2023-01-31T06:08:22;4.10;99.90
67752;DHT22;54551;51.068;5.826;2023-01-31T06:10:48;4.00;99.90
67752;DHT22;54551;51.068;5.826;2023-01-31T06:13:14;4.00;99.90
67752;DHT22;54551;51.068;5.826;2023-01-31T06:15:43;4.00;99.90
67752;DHT22;54551;51.068;5.826;2023-01-31T06:18:10;4.00;99.90
67752;DHT22;54551;51.068;5.826;2023-01-31T06:20:36;3.90;99.90
67752;DHT22;54551;51.068;5.826;2023-01-31T06:23:03;3.90;99.90
67752;DHT22;54551;51.068;5.826;2023-01-31T06:25:30;3.90;99.90
67752;DHT22;54551;51.068;5.826;2023-01-31T06:27:56;3.90;99.90
67752;DHT22;54551;51.068;5.826;2023-01-31T06:30:22;3.90;99.90
67752;DHT22;54551;51.068;5.826;2023-01-31T06:32:48;3.90;99.90
67752;DHT22;54551;51.068;5.826;2023-01-31T06:35:14;3.90;99.90
67752;DHT22;54551;51.068;5.826;2023-01-31T06:37:40;3.90;99.90
67752;DHT22;54551;51.068;5.826;2023-01-31T06:40:06;4.00;99.90
67752;DHT22;54551;51.068;5.826;2023-01-31T06:42:32;4.10;99.90
67752;DHT22;54551;51.068;5.826;2023-01-31T06:44:58;4.10;99.90
67752;DHT22;54551;51.068;5.826;2023-01-31T06:47:24;4.10;99.90
67752;DHT22;54551;51.068;5.826;2023-01-31T06:49:50;4.10;99.90
67752;DHT22;54551;51.068;5.826;2023-01-31T06:52:16;4.20;99.90
67752;DHT22;54551;51.068;5.826;2023-01-31T06:54:42;4.30;99.90
67752;DHT22;54551;51.068;5.826;2023-01-31T06:57:08;4.40;99.90
67752;DHT22;54551;51.068;5.826;2023-01-31T06:59:33;4.40;99.90
67752;DHT22;54551;51.068;5.826;2023-01-31T07:01:59;4.50;99.90
67752;DHT22;54551;51.068;5.826;2023-01-31T07:04:25;4.60;99.90
67752;DHT22;54551;51.068;5.826;2023-01-31T07:06:51;4.70;99.90
67752;DHT22;54551;51.068;5.826;2023-01-31T07:09:17;4.70;99.90
67752;DHT22;54551;51.068;5.826;2023-01-31T07:11:43;4.80;99.90
67752;DHT22;54551;51.068;5.826;2023-01-31T07:14:09;4.80;99.90
67752;DHT22;54551;51.068;5.826;2023-01-31T07:16:35;4.90;99.90
67752;DHT22;54551;51.068;5.826;2023-01-31T07:19:02;5.00;99.90
67752;DHT22;54551;51.068;5.826;2023-01-31T07:21:28;5.10;99.90
67752;DHT22;54551;51.068;5.826;2023-01-31T07:23:54;5.10;99.90
67752;DHT22;54551;51.068;5.826;2023-01-31T07:26:20;5.20;99.90
67752;DHT22;54551;51.068;5.826;2023-01-31T07:28:46;5.20;99.90
67752;DHT22;54551;51.068;5.826;2023-01-31T07:31:13;5.20;99.90
67752;DHT22;54551;51.068;5.826;2023-01-31T07:33:40;5.20;99.90
67752;DHT22;54551;51.068;5.826;2023-01-31T07:36:08;5.30;99.90
67752;DHT22;54551;51.068;5.826;2023-01-31T07:38:35;5.30;99.90
67752;DHT22;54551;51.068;5.826;2023-01-31T07:41:02;5.30;99.90
67752;DHT22;54551;51.068;5.826;2023-01-31T07:43:29;5.40;99.90
67752;DHT22;54551;51.068;5.826;2023-01-31T07:45:55;5.40;99.90
67752;DHT22;54551;51.068;5.826;2023-01-31T07:48:21;5.50;99.90
67752;DHT22;54551;51.068;5.826;2023-01-31T07:50:58;5.60;99.90
67752;DHT22;54551;51.068;5.826;2023-01-31T07:53:30;5.60;99.90
67752;DHT22;54551;51.068;5.826;2023-01-31T07:56:18;5.60;99.90
67752;DHT22;54551;51.068;5.826;2023-01-31T07:58:46;5.60;99.90
67752;DHT22;54551;51.068;5.826;2023-01-31T08:01:14;5.60;99.90
67752;DHT22;54551;51.068;5.826;2023-01-31T08:03:59;5.70;99.90
67752;DHT22;54551;51.068;5.826;2023-01-31T08:06:27;5.70;99.90
67752;DHT22;54551;51.068;5.826;2023-01-31T08:08:54;5.80;99.90
67752;DHT22;54551;51.068;5.826;2023-01-31T08:11:21;5.90;99.90
67752;DHT22;54551;51.068;5.826;2023-01-31T08:13:48;5.90;99.90
67752;DHT22;54551;51.068;5.826;2023-01-31T08:16:14;6.00;99.90
67752;DHT22;54551;51.068;5.826;2023-01-31T08:18:40;6.00;99.90
67752;DHT22;54551;51.068;5.826;2023-01-31T08:21:10;6.10;99.90
67752;DHT22;54551;51.068;5.826;2023-01-31T08:23:37;6.20;99.90
67752;DHT22;54551;51.068;5.826;2023-01-31T08:26:06;6.30;99.90
67752;DHT22;54551;51.068;5.826;2023-01-31T08:28:34;6.30;99.90
67752;DHT22;54551;51.068;5.826;2023-01-31T08:31:02;6.30;99.90
67752;DHT22;54551;51.068;5.826;2023-01-31T08:33:28;6.20;99.90
67752;DHT22;54551;51.068;5.826;2023-01-31T08:35:54;6.20;99.90
67752;DHT22;54551;51.068;5.826;2023-01-31T08:38:21;6.20;99.90
67752;DHT22;54551;51.068;5.826;2023-01-31T08:40:47;6.20;99.90
67752;DHT22;54551;51.068;5.826;2023-01-31T08:43:13;6.20;99.90
67752;DHT22;54551;51.068;5.826;2023-01-31T08:45:39;6.20;99.90
67752;DHT22;54551;51.068;5.826;2023-01-31T08:48:05;6.30;99.90
67752;DHT22;54551;51.068;5.826;2023-01-31T08:50:32;6.30;99.90
67752;DHT22;54551;51.068;5.826;2023-01-31T08:53:02;6.40;99.90
67752;DHT22;54551;51.068;5.826;2023-01-31T08:55:30;6.50;99.90
67752;DHT22;54551;51.068;5.826;2023-01-31T08:57:56;6.50;99.90
67752;DHT22;54551;51.068;5.826;2023-01-31T09:00:22;6.50;99.90
67752;DHT22;54551;51.068;5.826;2023-01-31T09:02:56;6.60;99.90
67752;DHT22;54551;51.068;5.826;2023-01-31T09:05:23;6.60;99.90
67752;DHT22;54551;51.068;5.826;2023-01-31T09:07:49;6.70;99.90
67752;DHT22;54551;51.068;5.826;2023-01-31T09:10:17;6.80;99.90
67752;DHT22;54551;51.068;5.826;2023-01-31T09:12:43;6.90;99.90
67752;DHT22;54551;51.068;5.826;2023-01-31T09:15:09;7.00;99.90
67752;DHT22;54551;51.068;5.826;2023-01-31T09:17:36;7.00;99.90
67752;DHT22;54551;51.068;5.826;2023-01-31T09:20:02;7.10;99.90
67752;DHT22;54551;51.068;5.826;2023-01-31T09:22:34;7.10;99.90
67752;DHT22;54551;51.068;5.826;2023-01-31T09:25:01;7.10;99.90
67752;DHT22;54551;51.068;5.826;2023-01-31T09:27:28;7.20;99.90
67752;DHT22;54551;51.068;5.826;2023-01-31T09:29:54;7.10;99.90
67752;DHT22;54551;51.068;5.826;2023-01-31T09:32:20;7.10;99.90
67752;DHT22;54551;51.068;5.826;2023-01-31T09:34:46;7.10;99.90
67752;DHT22;54551;51.068;5.826;2023-01-31T09:37:16;7.10;99.90
67752;DHT22;54551;51.068;5.826;2023-01-31T09:39:42;7.10;99.90
67752;DHT22;54551;51.068;5.826;2023-01-31T09:42:21;7.20;99.90
67752;DHT22;54551;51.068;5.826;2023-01-31T09:47:49;7.20;99.90
67752;DHT22;54551;51.068;5.826;2023-01-31T09:50:30;7.30;99.90
67752;DHT22;54551;51.068;5.826;2023-01-31T09:52:58;7.30;99.90
67752;DHT22;54551;51.068;5.826;2023-01-31T09:55:49;7.30;99.90
67752;DHT22;54551;51.068;5.826;2023-01-31T09:58:43;7.20;99.90
67752;DHT22;54551;51.068;5.826;2023-01-31T10:01:28;7.10;99.90
67752;DHT22;54551;51.068;5.826;2023-01-31T10:04:17;7.10;99.90
67752;DHT22;54551;51.068;5.826;2023-01-31T10:06:48;7.00;99.90
67752;DHT22;54551;51.068;5.826;2023-01-31T10:09:29;7.00;99.90
67752;DHT22;54551;51.068;5.826;2023-01-31T10:12:10;7.00;99.90
67752;DHT22;54551;51.068;5.826;2023-01-31T10:15:05;7.10;99.90
67752;DHT22;54551;51.068;5.826;2023-01-31T10:17:42;7.30;99.90
67752;DHT22;54551;51.068;5.826;2023-01-31T10:20:36;7.50;99.90
67752;DHT22;54551;51.068;5.826;2023-01-31T10:23:11;7.70;99.90
67752;DHT22;54551;51.068;5.826;2023-01-31T10:25:58;8.00;99.90
67752;DHT22;54551;51.068;5.826;2023-01-31T10:28:33;8.40;99.90
67752;DHT22;54551;51.068;5.826;2023-01-31T10:36:13;8.80;99.90
67752;DHT22;54551;51.068;5.826;2023-01-31T10:38:54;9.00;99.90
67752;DHT22;54551;51.068;5.826;2023-01-31T10:44:02;9.20;99.90
67752;DHT22;54551;51.068;5.826;2023-01-31T10:46:30;9.20;99.90
67752;DHT22;54551;51.068;5.826;2023-01-31T10:48:56;9.00;99.90
67752;DHT22;54551;51.068;5.826;2023-01-31T10:51:35;8.80;99.90
67752;DHT22;54551;51.068;5.826;2023-01-31T10:57:01;8.60;99.90
67752;DHT22;54551;51.068;5.826;2023-01-31T10:59:31;8.70;99.90
67752;DHT22;54551;51.068;5.826;2023-01-31T11:01:59;8.70;99.90
67752;DHT22;54551;51.068;5.826;2023-01-31T11:04:37;8.80;99.90
67752;DHT22;54551;51.068;5.826;2023-01-31T11:07:05;8.80;99.90
67752;DHT22;54551;51.068;5.826;2023-01-31T11:09:38;8.90;99.90
67752;DHT22;54551;51.068;5.826;2023-01-31T11:12:06;8.90;99.90
67752;DHT22;54551;51.068;5.826;2023-01-31T11:14:33;8.80;99.90
67752;DHT22;54551;51.068;5.826;2023-01-31T11:17:13;8.80;99.90
67752;DHT22;54551;51.068;5.826;2023-01-31T11:19:44;8.80;99.90
67752;DHT22;54551;51.068;5.826;2023-01-31T11:22:32;8.70;99.90
67752;DHT22;54551;51.068;5.826;2023-01-31T11:25:02;8.70;99.90
67752;DHT22;54551;51.068;5.826;2023-01-31T11:27:39;8.60;99.90
67752;DHT22;54551;51.068;5.826;2023-01-31T11:30:27;8.50;99.90
67752;DHT22;54551;51.068;5.826;2023-01-31T11:32:54;8.40;99.90
67752;DHT22;54551;51.068;5.826;2023-01-31T11:35:27;8.40;99.90
67752;DHT22;54551;51.068;5.826;2023-01-31T11:37:59;8.30;99.90
67752;DHT22;54551;51.068;5.826;2023-01-31T11:40:32;8.40;99.90
67752;DHT22;54551;51.068;5.826;2023-01-31T11:43:00;8.40;99.90
67752;DHT22;54551;51.068;5.826;2023-01-31T11:45:31;8.40;99.90
67752;DHT22;54551;51.068;5.826;2023-01-31T11:48:05;8.40;99.90
67752;DHT22;54551;51.068;5.826;2023-01-31T11:50:36;8.40;99.90
67752;DHT22;54551;51.068;5.826;2023-01-31T11:55:45;8.50;99.90
67752;DHT22;54551;51.068;5.826;2023-01-31T11:58:35;8.60;99.90
67752;DHT22;54551;51.068;5.826;2023-01-31T12:01:13;8.70;99.90
67752;DHT22;54551;51.068;5.826;2023-01-31T12:03:49;8.80;99.90
67752;DHT22;54551;51.068;5.826;2023-01-31T12:06:32;8.90;99.90
67752;DHT22;54551;51.068;5.826;2023-01-31T12:08:59;8.90;99.90
67752;DHT22;54551;51.068;5.826;2023-01-31T12:11:28;8.90;99.90
67752;DHT22;54551;51.068;5.826;2023-01-31T12:14:15;8.90;99.90
67752;DHT22;54551;51.068;5.826;2023-01-31T12:16:43;8.90;99.90
67752;DHT22;54551;51.068;5.826;2023-01-31T12:43:19;8.60;99.90
67752;DHT22;54551;51.068;5.826;2023-01-31T12:46:04;8.50;99.90
67752;DHT22;54551;51.068;5.826;2023-01-31T12:48:42;8.50;99.90
67752;DHT22;54551;51.068;5.826;2023-01-31T12:56:49;8.50;99.90
67752;DHT22;54551;51.068;5.826;2023-01-31T12:59:47;8.50;99.90
67752;DHT22;54551;51.068;5.826;2023-01-31T13:05:28;8.50;99.90
67752;DHT22;54551;51.068;5.826;2023-01-31T13:11:01;8.50;99.90
67752;DHT22;54551;51.068;5.826;2023-01-31T13:13:37;8.50;99.90
67752;DHT22;54551;51.068;5.826;2023-01-31T13:16:25;8.40;99.90
67752;DHT22;54551;51.068;5.826;2023-01-31T13:18:56;8.50;99.90
67752;DHT22;54551;51.068;5.826;2023-01-31T13:21:26;8.50;99.90
67752;DHT22;54551;51.068;5.826;2023-01-31T13:24:28;8.50;99.90
67752;DHT22;54551;51.068;5.826;2023-01-31T13:26:59;8.60;99.90
67752;DHT22;54551;51.068;5.826;2023-01-31T13:29:38;8.50;99.90
67752;DHT22;54551;51.068;5.826;2023-01-31T13:32:24;8.50;99.90
67752;DHT22;54551;51.068;5.826;2023-01-31T13:35:23;8.40;99.90
67752;DHT22;54551;51.068;5.826;2023-01-31T13:37:55;8.40;99.90
67752;DHT22;54551;51.068;5.826;2023-01-31T13:40:30;8.40;99.90
67752;DHT22;54551;51.068;5.826;2023-01-31T13:43:02;8.40;99.90
67752;DHT22;54551;51.068;5.826;2023-01-31T13:45:37;8.40;99.90
67752;DHT22;54551;51.068;5.826;2023-01-31T13:48:16;8.40;99.90
67752;DHT22;54551;51.068;5.826;2023-01-31T13:50:50;8.30;99.90
67752;DHT22;54551;51.068;5.826;2023-01-31T13:53:31;8.30;99.90
67752;DHT22;54551;51.068;5.826;2023-01-31T13:56:00;8.30;99.90
67752;DHT22;54551;51.068;5.826;2023-01-31T13:58:33;8.20;99.90
67752;DHT22;54551;51.068;5.826;2023-01-31T14:01:14;8.20;99.90
67752;DHT22;54551;51.068;5.826;2023-01-31T14:07:12;8.20;99.90
67752;DHT22;54551;51.068;5.826;2023-01-31T14:09:44;8.20;99.90
67752;DHT22;54551;51.068;5.826;2023-01-31T14:14:47;8.10;99.90
67752;DHT22;54551;51.068;5.826;2023-01-31T14:22:26;8.10;99.90
67752;DHT22;54551;51.068;5.826;2023-01-31T14:24:58;8.10;99.90
67752;DHT22;54551;51.068;5.826;2023-01-31T14:35:21;8.10;99.90
67752;DHT22;54551;51.068;5.826;2023-01-31T14:49:42;8.00;99.90
67752;DHT22;54551;51.068;5.826;2023-01-31T14:55:20;8.00;99.90
67752;DHT22;54551;51.068;5.826;2023-01-31T14:57:51;8.00;99.90
67752;DHT22;54551;51.068;5.826;2023-01-31T15:00:30;8.00;99.90
67752;DHT22;54551;51.068;5.826;2023-01-31T15:03:06;8.00;99.90
67752;DHT22;54551;51.068;5.826;2023-01-31T15:05:43;8.00;99.90
67752;DHT22;54551;51.068;5.826;2023-01-31T15:11:06;8.00;99.90
67752;DHT22;54551;51.068;5.826;2023-01-31T15:15:59;8.00;99.90
67752;DHT22;54551;51.068;5.826;2023-01-31T15:18:27;8.10;99.90
67752;DHT22;54551;51.068;5.826;2023-01-31T15:20:57;8.10;99.90
67752;DHT22;54551;51.068;5.826;2023-01-31T15:23:30;8.10;99.90
67752;DHT22;54551;51.068;5.826;2023-01-31T15:25:57;8.10;99.90
67752;DHT22;54551;51.068;5.826;2023-01-31T15:28:26;8.10;99.90
67752;DHT22;54551;51.068;5.826;2023-01-31T15:30:56;8.20;99.90
67752;DHT22;54551;51.068;5.826;2023-01-31T15:33:56;8.20;99.90
67752;DHT22;54551;51.068;5.826;2023-01-31T15:36:45;8.20;99.90
67752;DHT22;54551;51.068;5.826;2023-01-31T15:39:27;8.30;99.90
67752;DHT22;54551;51.068;5.826;2023-01-31T15:41:55;8.30;99.90
67752;DHT22;54551;51.068;5.826;2023-01-31T15:44:23;8.30;99.90
67752;DHT22;54551;51.068;5.826;2023-01-31T15:46:50;8.30;99.90
67752;DHT22;54551;51.068;5.826;2023-01-31T15:49:29;8.30;99.90
67752;DHT22;54551;51.068;5.826;2023-01-31T15:52:04;8.30;99.90
67752;DHT22;54551;51.068;5.826;2023-01-31T15:54:30;8.30;99.90
67752;DHT22;54551;51.068;5.826;2023-01-31T15:56:56;8.30;99.90
67752;DHT22;54551;51.068;5.826;2023-01-31T15:59:26;8.30;99.90
67752;DHT22;54551;51.068;5.826;2023-01-31T16:01:56;8.30;99.90
67752;DHT22;54551;51.068;5.826;2023-01-31T16:04:23;8.40;99.90
67752;DHT22;54551;51.068;5.826;2023-01-31T16:06:49;8.30;99.90
67752;DHT22;54551;51.068;5.826;2023-01-31T16:09:25;8.30;99.90
67752;DHT22;54551;51.068;5.826;2023-01-31T16:11:52;8.40;99.90
67752;DHT22;54551;51.068;5.826;2023-01-31T16:14:20;8.40;99.90
67752;DHT22;54551;51.068;5.826;2023-01-31T16:16:47;8.40;99.90
67752;DHT22;54551;51.068;5.826;2023-01-31T16:19:33;8.30;99.90
67752;DHT22;54551;51.068;5.826;2023-01-31T16:22:00;8.40;99.90
67752;DHT22;54551;51.068;5.826;2023-01-31T16:24:29;8.40;99.90
67752;DHT22;54551;51.068;5.826;2023-01-31T16:26:57;8.40;99.90
67752;DHT22;54551;51.068;5.826;2023-01-31T16:29:38;8.30;99.90
67752;DHT22;54551;51.068;5.826;2023-01-31T16:32:28;8.30;99.90
67752;DHT22;54551;51.068;5.826;2023-01-31T16:37:38;8.30;99.90
67752;DHT22;54551;51.068;5.826;2023-01-31T16:40:26;8.20;99.90
67752;DHT22;54551;51.068;5.826;2023-01-31T16:43:24;8.30;99.90
67752;DHT22;54551;51.068;5.826;2023-01-31T16:46:00;8.30;99.90
67752;DHT22;54551;51.068;5.826;2023-01-31T16:48:28;8.20;99.90
67752;DHT22;54551;51.068;5.826;2023-01-31T16:50:56;8.20;99.90
67752;DHT22;54551;51.068;5.826;2023-01-31T16:53:33;8.20;99.90
67752;DHT22;54551;51.068;5.826;2023-01-31T16:58:57;8.20;99.90
67752;DHT22;54551;51.068;5.826;2023-01-31T17:04:15;8.30;99.90
67752;DHT22;54551;51.068;5.826;2023-01-31T17:06:46;8.20;99.90
67752;DHT22;54551;51.068;5.826;2023-01-31T17:09:17;8.30;99.90
67752;DHT22;54551;51.068;5.826;2023-01-31T17:11:43;8.20;99.90
67752;DHT22;54551;51.068;5.826;2023-01-31T17:14:11;8.20;99.90
67752;DHT22;54551;51.068;5.826;2023-01-31T17:16:38;8.20;99.90
67752;DHT22;54551;51.068;5.826;2023-01-31T17:19:04;8.30;99.90
67752;DHT22;54551;51.068;5.826;2023-01-31T17:21:33;8.30;99.90
67752;DHT22;54551;51.068;5.826;2023-01-31T17:24:02;8.30;99.90
67752;DHT22;54551;51.068;5.826;2023-01-31T17:26:29;8.30;99.90
67752;DHT22;54551;51.068;5.826;2023-01-31T17:28:55;8.30;99.90
67752;DHT22;54551;51.068;5.826;2023-01-31T17:31:23;8.40;99.90
67752;DHT22;54551;51.068;5.826;2023-01-31T17:33:50;8.40;99.90
67752;DHT22;54551;51.068;5.826;2023-01-31T17:36:16;8.40;99.90
67752;DHT22;54551;51.068;5.826;2023-01-31T17:38:43;8.40;99.90
67752;DHT22;54551;51.068;5.826;2023-01-31T17:41:15;8.40;99.90
67752;DHT22;54551;51.068;5.826;2023-01-31T17:43:41;8.40;99.90
67752;DHT22;54551;51.068;5.826;2023-01-31T17:46:11;8.40;99.90
67752;DHT22;54551;51.068;5.826;2023-01-31T17:48:37;8.50;99.90
67752;DHT22;54551;51.068;5.826;2023-01-31T17:51:04;8.40;99.90
67752;DHT22;54551;51.068;5.826;2023-01-31T17:53:31;8.40;99.90
67752;DHT22;54551;51.068;5.826;2023-01-31T17:55:57;8.40;99.90
67752;DHT22;54551;51.068;5.826;2023-01-31T17:58:23;8.50;99.90
67752;DHT22;54551;51.068;5.826;2023-01-31T18:00:51;8.50;99.90
67752;DHT22;54551;51.068;5.826;2023-01-31T18:03:19;8.50;99.90
67752;DHT22;54551;51.068;5.826;2023-01-31T18:05:45;8.50;99.90
67752;DHT22;54551;51.068;5.826;2023-01-31T18:08:12;8.40;99.90
67752;DHT22;54551;51.068;5.826;2023-01-31T18:10:38;8.40;99.90
67752;DHT22;54551;51.068;5.826;2023-01-31T18:13:05;8.40;99.90
67752;DHT22;54551;51.068;5.826;2023-01-31T18:15:31;8.40;99.90
67752;DHT22;54551;51.068;5.826;2023-01-31T18:17:57;8.40;99.90
67752;DHT22;54551;51.068;5.826;2023-01-31T18:20:23;8.30;99.90
67752;DHT22;54551;51.068;5.826;2023-01-31T18:22:48;8.30;99.90
67752;DHT22;54551;51.068;5.826;2023-01-31T18:25:14;8.20;99.90
67752;DHT22;54551;51.068;5.826;2023-01-31T18:27:40;8.10;99.90